createdAt,value
2022-10-01T00:02:09.566Z,101594.13
2022-10-01T00:04:40.190Z,101581.72
2022-10-01T00:07:15.577Z,101588.44
2022-10-01T00:09:43.200Z,101593.88
2022-10-01T00:12:11.132Z,101596.97
2022-10-01T00:14:39.866Z,101603.06
2022-10-01T00:17:07.579Z,101606.84
2022-10-01T00:19:36.111Z,101611.72
2022-10-01T00:22:05.210Z,101603.88
2022-10-01T00:24:33.205Z,101608.44
2022-10-01T00:27:01.288Z,101606.56
2022-10-01T00:29:28.842Z,101615.63
2022-10-01T00:31:57.531Z,101618.50
2022-10-01T00:34:25.574Z,101624.88
2022-10-01T00:36:53.185Z,101634.09
2022-10-01T00:39:21.471Z,101629.72
2022-10-01T00:41:50.639Z,101639.66
2022-10-01T00:44:31.081Z,101638.13
2022-10-01T00:47:29.721Z,101634.41
2022-10-01T00:50:16.775Z,101639.09
2022-10-01T00:52:48.803Z,101649.31
2022-10-01T00:55:22.253Z,101650.06
2022-10-01T00:57:51.142Z,101658.00
2022-10-01T01:00:19.522Z,101656.06
2022-10-01T01:02:47.543Z,101665.19
2022-10-01T01:05:16.479Z,101667.34
2022-10-01T01:07:49.160Z,101673.78
2022-10-01T01:10:23.693Z,101666.81
2022-10-01T01:13:11.969Z,101663.28
2022-10-01T01:15:56.028Z,101665.16
2022-10-01T01:18:53.384Z,101656.25
2022-10-01T01:21:37.362Z,101664.50
2022-10-01T01:24:05.486Z,101667.97
2022-10-01T01:26:37.211Z,101666.56
2022-10-01T01:29:15.183Z,101661.25
2022-10-01T01:31:46.981Z,101658.28
2022-10-01T01:34:23.328Z,101661.03
2022-10-01T01:36:58.926Z,101658.59
2022-10-01T01:39:30.542Z,101665.59
2022-10-01T01:42:03.923Z,101681.91
2022-10-01T01:44:36.117Z,101673.09
2022-10-01T01:47:07.805Z,101681.72
2022-10-01T01:49:36.655Z,101678.91
2022-10-01T01:52:16.066Z,101676.03
2022-10-01T01:54:47.919Z,101677.44
2022-10-01T01:57:20.321Z,101679.09
2022-10-01T01:59:47.962Z,101674.03
2022-10-01T02:02:24.563Z,101688.63
2022-10-01T02:05:07.627Z,101681.69
2022-10-01T02:08:02.372Z,101688.72
2022-10-01T02:10:45.474Z,101690.31
2022-10-01T02:14:01.846Z,101700.19
2022-10-01T02:16:53.938Z,101706.53
2022-10-01T02:19:48.932Z,101713.94
2022-10-01T02:22:22.630Z,101717.47
2022-10-01T02:24:58.894Z,101718.19
2022-10-01T02:27:47.484Z,101720.78
2022-10-01T02:30:15.888Z,101718.84
2022-10-01T02:32:54.019Z,101726.63
2022-10-01T02:35:38.752Z,101720.50
2022-10-01T02:38:51.176Z,101717.63
2022-10-01T02:42:00.160Z,101721.59
2022-10-01T02:44:40.926Z,101729.75
2022-10-01T02:51:46.775Z,101712.47
2022-10-01T02:58:35.767Z,101727.25
2022-10-01T03:01:21.627Z,101726.44
2022-10-01T03:04:13.230Z,101720.41
2022-10-01T03:06:50.429Z,101715.97
2022-10-01T03:09:51.372Z,101709.59
2022-10-01T03:12:37.315Z,101710.06
2022-10-01T03:15:08.015Z,101729.38
2022-10-01T03:17:37.519Z,101729.66
2022-10-01T03:20:18.985Z,101741.22
2022-10-01T03:22:47.409Z,101745.94
2022-10-01T03:25:16.306Z,101743.44
2022-10-01T03:27:52.826Z,101745.63
2022-10-01T03:30:24.534Z,101751.84
2022-10-01T03:32:52.300Z,101757.47
2022-10-01T03:35:20.846Z,101749.88
2022-10-01T03:37:48.543Z,101748.88
2022-10-01T03:40:16.314Z,101753.16
2022-10-01T03:42:44.038Z,101758.59
2022-10-01T03:45:11.933Z,101762.47
2022-10-01T03:47:40.418Z,101753.59
2022-10-01T03:50:08.968Z,101754.16
2022-10-01T03:52:37.279Z,101761.91
2022-10-01T03:55:06.637Z,101758.22
2022-10-01T03:57:34.701Z,101766.06
2022-10-01T04:00:03.129Z,101770.03
2022-10-01T04:02:38.948Z,101769.50
2022-10-01T04:05:07.874Z,101779.00
2022-10-01T04:07:35.617Z,101779.72
2022-10-01T04:10:04.654Z,101781.66
2022-10-01T04:12:33.892Z,101782.09
2022-10-01T04:15:04.918Z,101788.44
2022-10-01T04:17:32.827Z,101800.22
2022-10-01T04:20:00.864Z,101795.97
2022-10-01T04:22:29.372Z,101804.06
2022-10-01T04:24:57.188Z,101804.53
2022-10-01T04:27:26.626Z,101804.47
2022-10-01T04:29:56.160Z,101806.50
2022-10-01T04:32:23.835Z,101822.50
2022-10-01T04:34:56.377Z,101828.47
2022-10-01T04:37:28.630Z,101821.31
2022-10-01T04:39:57.082Z,101827.97
2022-10-01T04:42:24.877Z,101832.66
2022-10-01T04:44:52.601Z,101839.88
2022-10-01T04:47:21.871Z,101847.44
2022-10-01T04:49:50.189Z,101852.81
2022-10-01T04:52:17.866Z,101851.16
2022-10-01T04:54:45.589Z,101854.81
2022-10-01T04:57:13.421Z,101851.13
2022-10-01T04:59:41.255Z,101849.38
2022-10-01T05:02:09.619Z,101850.25
2022-10-01T05:04:37.769Z,101859.47
2022-10-01T05:07:06.587Z,101866.56
2022-10-01T05:09:34.478Z,101865.38
2022-10-01T05:12:03.073Z,101866.41
2022-10-01T05:14:30.492Z,101868.88
2022-10-01T05:16:58.510Z,101873.59
2022-10-01T05:19:29.652Z,101880.94
2022-10-01T05:21:57.300Z,101878.16
2022-10-01T05:24:26.114Z,101873.50
2022-10-01T05:26:54.799Z,101877.72
2022-10-01T05:29:22.866Z,101889.25
2022-10-01T05:31:50.592Z,101886.75
2022-10-01T05:34:18.461Z,101895.84
2022-10-01T05:36:46.681Z,101891.44
2022-10-01T05:39:14.138Z,101896.63
2022-10-01T05:41:42.618Z,101896.63
2022-10-01T05:44:10.373Z,101903.94
2022-10-01T05:46:38.539Z,101905.25
2022-10-01T05:49:08.514Z,101903.41
2022-10-01T05:51:37.021Z,101915.91
2022-10-01T05:54:04.811Z,101912.38
2022-10-01T05:56:32.771Z,101916.91
2022-10-01T05:59:00.475Z,101924.56
2022-10-01T06:01:28.953Z,101925.38
2022-10-01T06:03:57.295Z,101933.91
2022-10-01T06:06:26.893Z,101936.56
2022-10-01T06:08:55.193Z,101936.22
2022-10-01T06:11:24.614Z,101948.84
2022-10-01T06:13:52.866Z,101952.16
2022-10-01T06:16:21.452Z,101953.69
2022-10-01T06:18:49.901Z,101952.97
2022-10-01T06:21:17.391Z,101947.44
2022-10-01T06:23:45.217Z,101954.53
2022-10-01T06:26:12.873Z,101951.81
2022-10-01T06:28:41.039Z,101953.47
2022-10-01T06:31:08.709Z,101959.75
2022-10-01T06:33:36.918Z,101960.44
2022-10-01T06:36:05.429Z,101969.16
2022-10-01T06:38:33.123Z,101964.50
2022-10-01T06:41:02.747Z,101966.38
2022-10-01T06:43:33.061Z,101973.25
2022-10-01T06:46:05.829Z,101991.28
2022-10-01T06:48:36.317Z,101975.84
2022-10-01T06:51:04.617Z,101969.53
2022-10-01T06:53:32.762Z,101976.03
2022-10-01T06:56:08.426Z,101973.13
2022-10-01T06:58:35.987Z,101979.38
2022-10-01T07:01:06.921Z,101981.53
2022-10-01T07:03:35.246Z,101997.03
2022-10-01T07:06:09.616Z,101998.69
2022-10-01T07:08:45.332Z,102005.59
2022-10-01T07:11:14.740Z,102008.81
2022-10-01T07:13:54.911Z,102014.00
2022-10-01T07:16:22.746Z,102028.16
2022-10-01T07:18:50.539Z,102025.13
2022-10-01T07:21:24.879Z,102031.91
2022-10-01T07:23:53.596Z,102036.28
2022-10-01T07:26:24.242Z,102036.91
2022-10-01T07:28:55.814Z,102048.53
2022-10-01T07:31:24.673Z,102053.00
2022-10-01T07:34:07.007Z,102059.06
2022-10-01T07:36:37.749Z,102056.50
2022-10-01T07:39:11.475Z,102065.66
2022-10-01T07:41:43.049Z,102068.81
2022-10-01T07:44:14.993Z,102067.53
2022-10-01T07:46:42.525Z,102074.28
2022-10-01T07:49:22.010Z,102064.53
2022-10-01T07:52:00.188Z,102068.75
2022-10-01T07:54:31.028Z,102057.47
2022-10-01T07:57:08.750Z,102055.19
2022-10-01T07:59:58.152Z,102059.34
2022-10-01T08:02:56.371Z,102059.94
2022-10-01T08:05:33.724Z,102049.78
2022-10-01T08:08:17.384Z,102053.56
2022-10-01T08:11:42.851Z,102061.53
2022-10-01T08:14:23.652Z,102061.97
2022-10-01T08:16:56.461Z,102068.13
2022-10-01T08:19:36.963Z,102073.88
2022-10-01T08:22:05.971Z,102075.13
2022-10-01T08:25:05.127Z,102072.88
2022-10-01T08:27:40.695Z,102074.91
2022-10-01T08:30:11.233Z,102087.84
2022-10-01T08:32:48.199Z,102083.28
2022-10-01T08:35:31.525Z,102099.56
2022-10-01T08:38:08.704Z,102089.44
2022-10-01T08:41:16.876Z,102105.44
2022-10-01T08:44:38.908Z,102108.72
2022-10-01T08:47:41.837Z,102115.50
2022-10-01T08:50:33.582Z,102114.88
2022-10-01T08:53:08.923Z,102115.94
2022-10-01T08:55:50.984Z,102107.56
2022-10-01T08:58:35.862Z,102111.53
2022-10-01T09:01:04.113Z,102100.41
2022-10-01T09:03:35.378Z,102095.69
2022-10-01T09:06:20.996Z,102088.06
2022-10-01T09:09:07.041Z,102088.94
2022-10-01T09:12:06.145Z,102090.84
2022-10-01T09:15:06.977Z,102089.19
2022-10-01T09:17:52.431Z,102085.06
2022-10-01T09:20:45.768Z,102081.94
2022-10-01T09:23:31.042Z,102085.28
2022-10-01T09:26:07.346Z,102100.44
2022-10-01T09:28:47.616Z,102101.06
2022-10-01T09:31:30.603Z,102108.53
2022-10-01T09:34:12.999Z,102110.63
2022-10-01T09:37:08.041Z,102114.16
2022-10-01T09:39:55.386Z,102109.19
2022-10-01T09:42:30.243Z,102110.63
2022-10-01T09:44:58.651Z,102108.75
2022-10-01T09:47:26.463Z,102107.72
2022-10-01T09:49:53.978Z,102118.06
2022-10-01T09:52:41.924Z,102109.72
2022-10-01T09:55:18.890Z,102106.72
2022-10-01T09:58:09.830Z,102096.00
2022-10-01T10:00:49.900Z,102096.50
2022-10-01T10:03:31.144Z,102099.75
2022-10-01T10:06:01.403Z,102100.50
2022-10-01T10:08:32.348Z,102099.81
2022-10-01T10:11:15.323Z,102094.88
2022-10-01T10:13:52.273Z,102091.94
2022-10-01T10:16:26.739Z,102093.66
2022-10-01T10:19:02.565Z,102076.97
2022-10-01T10:21:34.495Z,102071.91
2022-10-01T10:24:20.870Z,102069.13
2022-10-01T10:26:55.457Z,102067.09
2022-10-01T10:29:41.713Z,102070.47
2022-10-01T10:32:24.351Z,102068.53
2022-10-01T10:34:53.553Z,102073.66
2022-10-01T10:37:29.277Z,102067.84
2022-10-01T10:40:08.391Z,102062.50
2022-10-01T10:42:47.186Z,102065.06
2022-10-01T10:45:23.401Z,102062.47
2022-10-01T10:47:53.773Z,102063.00
2022-10-01T10:50:29.493Z,102070.38
2022-10-01T10:52:59.274Z,102069.25
2022-10-01T10:55:32.226Z,102082.94
2022-10-01T10:58:19.989Z,102075.56
2022-10-01T11:00:59.333Z,102084.44
2022-10-01T11:03:32.772Z,102086.28
2022-10-01T11:06:24.916Z,102090.66
2022-10-01T11:09:00.886Z,102084.09
2022-10-01T11:11:54.650Z,102078.06
2022-10-01T11:14:27.920Z,102081.81
2022-10-01T11:17:13.732Z,102078.22
2022-10-01T11:20:20.646Z,102081.31
2022-10-01T11:23:17.253Z,102084.03
2022-10-01T11:25:58.635Z,102077.50
2022-10-01T11:28:34.799Z,102082.72
2022-10-01T11:31:07.691Z,102080.41
2022-10-01T11:33:35.134Z,102080.41
2022-10-01T11:36:34.108Z,102077.59
2022-10-01T11:39:06.020Z,102077.13
2022-10-01T11:41:53.357Z,102074.09
2022-10-01T11:44:30.600Z,102073.84
2022-10-01T11:47:27.319Z,102077.63
2022-10-01T11:50:08.669Z,102085.31
2022-10-01T11:52:53.113Z,102088.38
2022-10-01T11:55:59.568Z,102094.13
2022-10-01T11:58:57.597Z,102101.66
2022-10-01T12:01:28.651Z,102095.69
2022-10-01T12:04:40.081Z,102094.63
2022-10-01T12:07:40.947Z,102096.91
2022-10-01T12:10:29.004Z,102093.28
2022-10-01T12:13:19.487Z,102095.78
2022-10-01T12:16:06.358Z,102099.53
2022-10-01T12:18:39.562Z,102088.56
2022-10-01T12:21:20.125Z,102084.34
2022-10-01T12:23:57.864Z,102086.59
2022-10-01T12:27:05.230Z,102085.75
2022-10-01T12:29:53.110Z,102084.84
2022-10-01T12:32:41.507Z,102075.03
2022-10-01T12:35:36.638Z,102074.78
2022-10-01T12:38:28.965Z,102071.84
2022-10-01T12:41:39.762Z,102071.13
2022-10-01T12:44:45.298Z,102059.41
2022-10-01T12:47:39.880Z,102075.03
2022-10-01T12:50:35.699Z,102063.31
2022-10-01T12:53:08.896Z,102056.84
2022-10-01T12:56:04.994Z,102063.94
2022-10-01T12:58:41.625Z,102063.41
2022-10-01T13:01:49.594Z,102056.94
2022-10-01T13:04:35.989Z,102054.94
2022-10-01T13:07:22.324Z,102054.84
2022-10-01T13:10:22.893Z,102048.94
2022-10-01T13:13:15.436Z,102045.94
2022-10-01T13:15:47.445Z,102048.88
2022-10-01T13:18:14.794Z,102044.31
2022-10-01T13:21:00.586Z,102041.34
2022-10-01T13:23:51.463Z,102044.78
2022-10-01T13:26:42.678Z,102042.41
2022-10-01T13:29:16.585Z,102049.28
2022-10-01T13:31:57.146Z,102029.81
2022-10-01T13:34:47.061Z,102035.13
2022-10-01T13:37:17.511Z,102033.41
2022-10-01T13:39:46.846Z,102034.34
2022-10-01T13:42:27.420Z,102027.38
2022-10-01T13:45:04.919Z,102024.19
2022-10-01T13:47:39.192Z,102026.09
2022-10-01T13:50:19.801Z,102021.47
2022-10-01T13:52:47.671Z,102021.00
2022-10-01T13:55:43.029Z,102017.22
2022-10-01T13:58:30.365Z,102018.41
2022-10-01T14:01:01.090Z,102021.38
2022-10-01T14:03:39.948Z,102017.22
2022-10-01T14:06:16.051Z,102009.41
2022-10-01T14:08:53.622Z,102015.44
2022-10-01T14:11:48.042Z,102015.94
2022-10-01T14:14:54.397Z,102016.75
2022-10-01T14:17:43.445Z,102017.56
2022-10-01T14:20:22.526Z,102013.91
2022-10-01T14:23:21.844Z,102009.66
2022-10-01T14:26:01.954Z,101991.72
2022-10-01T14:28:32.081Z,101997.59
2022-10-01T14:31:21.724Z,102002.59
2022-10-01T14:34:29.689Z,101998.22
2022-10-01T14:36:58.879Z,101991.84
2022-10-01T14:39:29.222Z,101990.06
2022-10-01T14:41:58.525Z,101998.56
2022-10-01T14:44:39.638Z,101993.47
2022-10-01T14:47:28.656Z,101982.75
2022-10-01T14:49:56.542Z,101984.50
2022-10-01T14:52:29.223Z,101985.69
2022-10-01T14:54:59.747Z,101993.75
2022-10-01T14:57:46.594Z,101981.31
2022-10-01T15:00:17.796Z,101976.72
2022-10-01T15:02:52.410Z,101982.75
2022-10-01T15:05:32.322Z,101986.03
2022-10-01T15:08:43.471Z,101989.22
2022-10-01T15:11:34.308Z,101983.31
2022-10-01T15:14:08.676Z,101981.91
2022-10-01T15:16:37.001Z,101982.25
2022-10-01T15:19:13.833Z,101978.22
2022-10-01T15:21:54.419Z,101979.97
2022-10-01T15:24:40.935Z,101980.22
2022-10-01T15:27:11.723Z,101982.69
2022-10-01T15:29:40.967Z,101985.66
2022-10-01T15:32:09.600Z,101979.41
2022-10-01T15:34:48.655Z,101976.09
2022-10-01T15:37:25.522Z,101975.59
2022-10-01T15:40:04.244Z,101978.06
2022-10-01T15:42:35.186Z,101972.63
2022-10-01T15:45:09.515Z,101975.13
2022-10-01T15:47:52.055Z,101978.56
2022-10-01T15:50:33.626Z,101972.19
2022-10-01T15:53:03.946Z,101977.69
2022-10-01T15:55:38.380Z,101978.91
2022-10-01T15:58:11.038Z,101967.44
2022-10-01T16:01:09.516Z,101968.53
2022-10-01T16:03:39.842Z,101971.72
2022-10-01T16:06:29.204Z,101975.72
2022-10-01T16:09:10.716Z,101974.34
2022-10-01T16:12:00.723Z,101969.38
2022-10-01T16:14:34.303Z,101980.97
2022-10-01T16:17:40.786Z,101982.94
2022-10-01T16:20:17.567Z,101984.97
2022-10-01T16:22:45.507Z,101982.16
2022-10-01T16:25:33.437Z,101993.63
2022-10-01T16:28:21.377Z,101995.16
2022-10-01T16:30:51.751Z,101991.63
2022-10-01T16:33:19.196Z,101995.97
2022-10-01T16:35:48.972Z,102001.06
2022-10-01T16:38:17.051Z,102005.41
2022-10-01T16:40:49.569Z,102000.00
2022-10-01T16:43:22.222Z,102000.81
2022-10-01T16:46:00.287Z,102012.03
2022-10-01T16:48:28.519Z,102006.13
2022-10-01T16:51:06.705Z,102014.28
2022-10-01T16:53:34.772Z,102021.72
2022-10-01T16:56:05.214Z,102020.25
2022-10-01T16:58:32.904Z,102022.63
2022-10-01T17:01:06.995Z,102028.88
2022-10-01T17:03:36.403Z,102029.22
2022-10-01T17:06:04.263Z,102030.94
2022-10-01T17:08:31.814Z,102038.09
2022-10-01T17:11:03.781Z,102045.75
2022-10-01T17:13:33.059Z,102052.09
2022-10-01T17:16:01.703Z,102055.94
2022-10-01T17:18:29.236Z,102065.22
2022-10-01T17:20:56.731Z,102063.81
2022-10-01T17:23:24.342Z,102068.03
2022-10-01T17:25:52.195Z,102072.09
2022-10-01T17:28:20.976Z,102078.81
2022-10-01T17:30:49.731Z,102085.16
2022-10-01T17:33:31.276Z,102081.81
2022-10-01T17:35:58.570Z,102081.06
2022-10-01T17:38:25.911Z,102086.06
2022-10-01T17:41:01.373Z,102085.09
2022-10-01T17:43:28.710Z,102088.50
2022-10-01T17:46:01.137Z,102089.53
2022-10-01T17:48:30.235Z,102095.63
2022-10-01T17:51:09.876Z,102098.19
2022-10-01T17:53:42.515Z,102106.38
2022-10-01T17:56:15.416Z,102101.41
2022-10-01T17:58:45.621Z,102103.50
2022-10-01T18:01:23.155Z,102109.38
2022-10-01T18:04:01.389Z,102115.00
2022-10-01T18:06:30.417Z,102108.16
2022-10-01T18:08:58.503Z,102111.53
2022-10-01T18:11:28.275Z,102118.84
2022-10-01T18:13:56.240Z,102113.03
2022-10-01T18:16:40.635Z,102127.25
2022-10-01T18:19:52.769Z,102136.88
2022-10-01T18:22:13.378Z,102138.94
2022-10-01T18:24:42.717Z,102139.63
2022-10-01T18:27:10.568Z,102144.00
2022-10-01T18:29:39.242Z,102137.53
2022-10-01T18:32:19.622Z,102146.50
2022-10-01T18:34:59.188Z,102148.38
2022-10-01T18:37:46.086Z,102155.91
2022-10-01T18:40:21.810Z,102155.91
2022-10-01T18:43:13.625Z,102151.13
2022-10-01T18:46:11.500Z,102157.56
2022-10-01T18:48:54.657Z,102160.94
2022-10-01T18:51:28.670Z,102167.63
2022-10-01T18:54:34.714Z,102155.13
2022-10-01T18:57:37.120Z,102179.72
2022-10-01T19:00:23.897Z,102186.16
2022-10-01T19:03:10.852Z,102179.31
2022-10-01T19:05:48.413Z,102189.69
2022-10-01T19:08:53.209Z,102197.44
2022-10-01T19:12:09.509Z,102198.69
2022-10-01T19:14:48.032Z,102208.47
2022-10-01T19:17:53.276Z,102221.16
2022-10-01T19:21:22.596Z,102214.31
2022-10-01T19:23:59.886Z,102223.28
2022-10-01T19:26:46.179Z,102219.31
2022-10-01T19:29:26.837Z,102225.75
2022-10-01T19:32:28.903Z,102228.25
2022-10-01T19:35:26.985Z,102231.19
2022-10-01T19:38:26.431Z,102232.00
2022-10-01T19:41:06.465Z,102237.84
2022-10-01T19:43:45.787Z,102236.19
2022-10-01T19:46:46.654Z,102238.88
2022-10-01T19:49:35.491Z,102248.25
2022-10-01T19:52:33.011Z,102246.00
2022-10-01T19:55:06.893Z,102244.16
2022-10-01T19:57:46.688Z,102252.28
2022-10-01T20:00:37.269Z,102251.63
2022-10-01T20:03:25.330Z,102260.81
2022-10-01T20:06:18.791Z,102260.19
2022-10-01T20:09:01.620Z,102254.38
2022-10-01T20:11:36.849Z,102253.34
2022-10-01T20:14:55.128Z,102250.69
2022-10-01T20:18:04.346Z,102257.56
2022-10-01T20:21:05.076Z,102257.56
2022-10-01T20:23:53.965Z,102257.78
2022-10-01T20:26:35.246Z,102256.31
2022-10-01T20:29:02.803Z,102266.75
2022-10-01T20:31:52.727Z,102276.09
2022-10-01T20:34:37.445Z,102267.56
2022-10-01T20:37:35.287Z,102276.31
2022-10-01T20:40:30.018Z,102274.22
2022-10-01T20:54:46.854Z,102278.59
2022-10-01T20:57:32.459Z,102273.19
2022-10-01T21:00:22.039Z,102275.44
2022-10-01T21:03:12.411Z,102270.69
2022-10-01T21:09:48.820Z,102277.75
2022-10-01T21:12:23.138Z,102284.59
2022-10-01T21:15:01.022Z,102277.13
2022-10-01T21:17:50.795Z,102280.44
2022-10-01T21:20:55.868Z,102280.25
2022-10-01T21:23:45.254Z,102283.31
2022-10-01T21:26:19.016Z,102285.78
2022-10-01T21:29:29.611Z,102283.06
2022-10-01T21:32:09.943Z,102281.19
2022-10-01T21:34:51.357Z,102285.94
2022-10-01T21:37:40.128Z,102282.78
2022-10-01T21:40:26.109Z,102291.53
2022-10-01T21:43:07.662Z,102297.97
2022-10-01T21:46:03.090Z,102299.63
2022-10-01T21:48:37.258Z,102303.00
2022-10-01T21:51:25.088Z,102304.44
2022-10-01T21:54:00.334Z,102304.44
2022-10-01T21:56:59.307Z,102305.06
2022-10-01T21:59:51.638Z,102302.38
2022-10-01T22:02:23.016Z,102298.63
2022-10-01T22:05:23.138Z,102298.19
2022-10-01T22:08:17.651Z,102298.00
2022-10-01T22:11:54.456Z,102298.84
2022-10-01T22:14:32.774Z,102301.53
2022-10-01T22:17:17.823Z,102296.72
2022-10-01T22:19:52.913Z,102301.53
2022-10-01T22:27:05.518Z,102312.94
2022-10-01T22:29:48.995Z,102312.09
2022-10-01T22:32:34.118Z,102310.41
2022-10-01T22:35:46.534Z,102315.78
2022-10-01T22:38:57.316Z,102314.09
2022-10-01T22:41:50.583Z,102323.03
2022-10-01T22:44:26.256Z,102328.00
2022-10-01T22:47:05.700Z,102328.19
2022-10-01T22:49:51.010Z,102332.53
2022-10-01T22:53:16.363Z,102344.53
2022-10-01T22:56:02.424Z,102345.00
2022-10-01T22:58:39.540Z,102341.69
2022-10-01T23:01:36.582Z,102343.56
2022-10-01T23:04:32.458Z,102342.28
2022-10-01T23:07:49.516Z,102339.19
2022-10-01T23:10:36.752Z,102340.66
2022-10-01T23:13:15.975Z,102336.91
2022-10-01T23:16:27.644Z,102356.13
2022-10-01T23:19:11.970Z,102352.56
2022-10-01T23:21:47.439Z,102351.47
2022-10-01T23:24:22.724Z,102338.66
2022-10-01T23:27:04.400Z,102340.22
2022-10-01T23:29:38.083Z,102334.38
2022-10-01T23:32:36.585Z,102338.34
2022-10-01T23:35:21.053Z,102349.19
2022-10-01T23:37:53.887Z,102355.38
2022-10-01T23:40:25.427Z,102356.19
2022-10-01T23:43:06.363Z,102361.59
2022-10-01T23:45:43.395Z,102368.38
2022-10-01T23:48:15.814Z,102370.69
2022-10-01T23:50:54.695Z,102369.25
2022-10-01T23:53:51.414Z,102375.59
2022-10-01T23:56:44.051Z,102370.41
2022-10-01T23:59:52.793Z,102370.41
